createdAt,value
2019-01-20T00:01:29.593Z,65.32
2019-01-20T00:03:55.477Z,65.56
2019-01-20T00:06:21.397Z,65.41
2019-01-20T00:08:47.266Z,65.04
2019-01-20T00:11:16.680Z,64.96
2019-01-20T00:13:41.002Z,64.89
2019-01-20T00:16:07.002Z,64.94
2019-01-20T00:18:32.892Z,65.05
2019-01-20T00:20:58.817Z,64.99
2019-01-20T00:23:24.720Z,64.88
2019-01-20T00:25:50.628Z,64.91
2019-01-20T00:28:16.513Z,64.82
2019-01-20T00:30:42.424Z,64.78
2019-01-20T00:33:08.350Z,64.64
2019-01-20T00:35:34.227Z,64.74
2019-01-20T00:38:00.172Z,64.86
2019-01-20T00:40:26.086Z,64.54
2019-01-20T00:42:51.971Z,64.36
2019-01-20T00:45:17.912Z,64.67
2019-01-20T00:47:43.805Z,64.88
2019-01-20T00:50:11.395Z,64.73
2019-01-20T00:52:37.279Z,64.79
2019-01-20T00:55:06.318Z,64.64
2019-01-20T00:57:32.456Z,64.84
2019-01-20T00:59:58.346Z,64.69
2019-01-20T01:02:24.379Z,64.76
2019-01-20T01:04:50.289Z,64.76
2019-01-20T01:07:16.214Z,64.95
2019-01-20T01:09:42.095Z,64.80
2019-01-20T01:12:09.925Z,64.63
2019-01-20T01:14:35.797Z,64.67
2019-01-20T01:17:01.716Z,64.55
2019-01-20T01:19:27.590Z,64.53
2019-01-20T01:21:53.548Z,64.60
2019-01-20T01:24:19.454Z,64.83
2019-01-20T01:26:45.371Z,65.04
2019-01-20T01:29:11.353Z,65.36
2019-01-20T01:31:37.292Z,65.17
2019-01-20T01:34:03.201Z,64.84
2019-01-20T01:36:29.101Z,65.25
2019-01-20T01:38:54.968Z,65.24
2019-01-20T01:41:20.878Z,64.79
2019-01-20T01:43:46.786Z,64.62
2019-01-20T01:46:12.653Z,64.68
2019-01-20T01:48:38.549Z,64.41
2019-01-20T01:51:04.420Z,64.03
2019-01-20T01:53:30.336Z,64.54
2019-01-20T01:55:56.248Z,64.54
2019-01-20T01:58:22.204Z,64.55
2019-01-20T02:00:48.131Z,64.41
2019-01-20T02:03:14.038Z,64.55
2019-01-20T02:05:39.904Z,64.47
2019-01-20T02:08:05.806Z,64.57
2019-01-20T02:10:31.714Z,64.23
2019-01-20T02:12:57.583Z,64.72
2019-01-20T02:15:23.493Z,64.62
2019-01-20T02:17:49.360Z,64.55
2019-01-20T02:20:21.470Z,64.06
2019-01-20T02:22:47.344Z,64.49
2019-01-20T02:25:13.417Z,64.41
2019-01-20T02:27:39.319Z,64.49
2019-01-20T02:30:14.740Z,64.62
2019-01-20T02:32:40.671Z,64.41
2019-01-20T02:35:06.575Z,64.10
2019-01-20T02:37:32.482Z,64.25
2019-01-20T02:39:58.354Z,64.33
2019-01-20T02:42:24.387Z,64.73
2019-01-20T02:44:50.287Z,64.28
2019-01-20T02:47:16.154Z,64.44
2019-01-20T02:49:42.061Z,64.24
2019-01-20T02:52:07.959Z,64.28
2019-01-20T02:54:33.856Z,64.09
2019-01-20T02:56:59.790Z,64.20
2019-01-20T02:59:25.685Z,64.25
2019-01-20T03:01:51.851Z,64.10
2019-01-20T03:04:17.762Z,63.99
2019-01-20T03:06:43.631Z,64.33
2019-01-20T03:09:09.851Z,64.24
2019-01-20T03:11:35.741Z,64.43
2019-01-20T03:14:01.716Z,64.41
2019-01-20T03:16:27.608Z,64.56
2019-01-20T03:18:54.788Z,64.57
2019-01-20T03:21:20.807Z,64.35
2019-01-20T03:23:46.703Z,64.27
2019-01-20T03:26:12.595Z,64.40
2019-01-20T03:28:38.470Z,64.08
2019-01-20T03:31:04.388Z,64.30
2019-01-20T03:33:31.110Z,64.39
2019-01-20T03:35:56.974Z,64.26
2019-01-20T03:38:22.891Z,64.20
2019-01-20T03:40:48.806Z,64.29
2019-01-20T03:43:14.724Z,64.00
2019-01-20T03:45:40.597Z,63.58
2019-01-20T03:48:06.614Z,64.59
2019-01-20T03:50:32.480Z,64.42
2019-01-20T03:52:58.379Z,64.25
2019-01-20T03:55:24.290Z,64.05
2019-01-20T03:57:50.158Z,64.05
2019-01-20T04:00:21.223Z,64.43
2019-01-20T04:02:49.097Z,64.15
2019-01-20T04:05:15.045Z,64.88
2019-01-20T04:07:40.925Z,64.60
2019-01-20T04:10:14.633Z,64.59
2019-01-20T04:12:40.546Z,64.67
2019-01-20T04:15:07.338Z,64.47
2019-01-20T04:17:33.235Z,64.65
2019-01-20T04:19:59.111Z,64.61
2019-01-20T04:22:25.015Z,64.86
2019-01-20T04:24:50.920Z,65.21
2019-01-20T04:27:16.829Z,63.73
2019-01-20T04:29:42.695Z,64.35
2019-01-20T04:32:08.715Z,64.07
2019-01-20T04:34:34.599Z,63.59
2019-01-20T04:37:00.477Z,63.50
2019-01-20T04:39:26.395Z,63.90
2019-01-20T04:41:52.264Z,63.70
2019-01-20T04:44:18.163Z,63.52
2019-01-20T04:46:44.032Z,63.68
2019-01-20T04:49:09.925Z,63.61
2019-01-20T04:51:35.807Z,63.80
2019-01-20T04:54:02.017Z,64.02
2019-01-20T04:56:27.927Z,63.68
2019-01-20T04:58:53.812Z,63.90
2019-01-20T05:01:19.719Z,64.34
2019-01-20T05:03:45.637Z,64.19
2019-01-20T05:06:11.536Z,63.34
2019-01-20T05:08:37.416Z,63.62
2019-01-20T05:11:03.326Z,64.18
2019-01-20T05:13:29.203Z,64.27
2019-01-20T05:15:55.054Z,65.08
2019-01-20T05:18:20.960Z,64.15
2019-01-20T05:20:46.834Z,63.91
2019-01-20T05:23:12.741Z,63.43
2019-01-20T05:25:38.638Z,63.42
2019-01-20T05:28:04.549Z,63.27
2019-01-20T05:30:30.432Z,63.22
2019-01-20T05:32:56.344Z,63.14
2019-01-20T05:35:22.244Z,63.45
2019-01-20T05:37:48.128Z,62.51
2019-01-20T05:40:17.404Z,63.63
2019-01-20T05:42:46.376Z,63.55
2019-01-20T05:45:13.830Z,62.99
2019-01-20T05:47:39.687Z,63.29
2019-01-20T05:50:08.601Z,63.25
2019-01-20T05:52:34.463Z,63.33
2019-01-20T05:55:00.363Z,63.26
2019-01-20T05:57:26.279Z,63.26
2019-01-20T05:59:52.233Z,63.19
2019-01-20T06:02:18.109Z,63.19
2019-01-20T06:04:44.031Z,63.19
2019-01-20T06:07:09.913Z,63.11
2019-01-20T06:09:35.790Z,62.65
2019-01-20T06:12:01.705Z,62.75
2019-01-20T06:14:27.587Z,63.03
2019-01-20T06:16:53.512Z,62.80
2019-01-20T06:19:19.396Z,62.73
2019-01-20T06:21:45.296Z,62.73
2019-01-20T06:24:11.169Z,62.42
2019-01-20T06:26:37.096Z,62.41
2019-01-20T06:29:02.959Z,62.53
2019-01-20T06:31:28.870Z,62.95
2019-01-20T06:33:54.823Z,62.84
2019-01-20T06:36:20.686Z,62.76
2019-01-20T06:38:46.594Z,62.81
2019-01-20T06:41:12.477Z,63.05
2019-01-20T06:43:38.412Z,62.79
2019-01-20T06:46:04.283Z,62.85
2019-01-20T06:48:30.182Z,62.52
2019-01-20T06:50:56.056Z,62.77
2019-01-20T06:53:21.988Z,62.76
2019-01-20T06:55:47.859Z,62.80
2019-01-20T06:58:13.797Z,62.69
2019-01-20T07:00:39.701Z,62.63
2019-01-20T07:03:05.563Z,62.62
2019-01-20T07:05:31.484Z,62.68
2019-01-20T07:07:57.361Z,62.55
2019-01-20T07:10:23.265Z,62.65
2019-01-20T07:12:49.165Z,62.62
2019-01-20T07:15:17.253Z,62.60
2019-01-20T07:17:43.169Z,62.37
2019-01-20T07:20:10.681Z,62.85
2019-01-20T07:22:36.661Z,63.03
2019-01-20T07:25:04.601Z,63.03
2019-01-20T07:27:30.479Z,62.87
2019-01-20T07:29:56.429Z,63.28
2019-01-20T07:32:22.333Z,63.67
2019-01-20T07:34:48.233Z,63.33
2019-01-20T07:37:14.119Z,63.25
2019-01-20T07:39:39.992Z,62.96
2019-01-20T07:42:05.896Z,63.37
2019-01-20T07:44:31.798Z,63.46
2019-01-20T07:46:57.715Z,63.42
2019-01-20T07:49:23.586Z,63.17
2019-01-20T07:51:49.506Z,63.23
2019-01-20T07:54:15.376Z,63.05
2019-01-20T07:56:41.301Z,63.52
2019-01-20T07:59:07.274Z,62.79
2019-01-20T08:01:33.289Z,63.37
2019-01-20T08:03:59.219Z,63.53
2019-01-20T08:06:25.170Z,63.70
2019-01-20T08:08:51.056Z,63.79
2019-01-20T08:11:17.061Z,64.16
2019-01-20T08:13:42.950Z,64.01
2019-01-20T08:16:08.850Z,64.24
2019-01-20T08:18:34.806Z,64.31
2019-01-20T08:21:00.732Z,64.72
2019-01-20T08:23:26.733Z,64.65
2019-01-20T08:25:52.693Z,65.37
2019-01-20T08:28:18.604Z,65.51
2019-01-20T08:30:44.476Z,65.79
2019-01-20T08:33:10.415Z,65.85
2019-01-20T08:35:36.275Z,65.53
2019-01-20T08:38:02.200Z,65.54
2019-01-20T08:40:28.230Z,65.77
2019-01-20T08:42:54.097Z,65.57
2019-01-20T08:45:35.655Z,65.45
2019-01-20T08:48:11.117Z,65.49
2019-01-20T08:50:37.025Z,65.66
2019-01-20T08:53:02.899Z,65.99
2019-01-20T08:55:28.811Z,65.79
2019-01-20T08:57:54.721Z,65.55
2019-01-20T09:00:20.655Z,66.84
2019-01-20T09:02:46.507Z,66.68
2019-01-20T09:05:12.902Z,66.91
2019-01-20T09:07:38.798Z,67.69
2019-01-20T09:10:24.725Z,67.14
2019-01-20T09:12:50.932Z,67.80
2019-01-20T09:15:16.809Z,67.35
2019-01-20T09:17:42.854Z,67.25
2019-01-20T09:20:11.478Z,67.11
2019-01-20T09:22:37.409Z,67.51
2019-01-20T09:25:05.019Z,69.20
2019-01-20T09:27:30.962Z,70.24
2019-01-20T09:29:56.861Z,70.01
2019-01-20T09:32:22.791Z,69.40
2019-01-20T09:34:48.745Z,68.71
2019-01-20T09:37:14.687Z,68.41
2019-01-20T09:39:42.490Z,68.26
2019-01-20T09:42:08.398Z,67.95
2019-01-20T09:44:34.269Z,67.97
2019-01-20T09:47:00.182Z,68.15
2019-01-20T09:49:26.067Z,67.60
2019-01-20T09:51:52.089Z,67.42
2019-01-20T09:54:17.984Z,67.12
2019-01-20T09:56:44.015Z,67.53
2019-01-20T09:59:09.940Z,68.03
2019-01-20T10:01:35.870Z,67.76
2019-01-20T10:04:01.819Z,69.57
2019-01-20T10:06:27.695Z,69.57
2019-01-20T10:08:53.609Z,69.22
2019-01-20T10:11:19.537Z,68.35
2019-01-20T10:13:45.481Z,67.58
2019-01-20T10:16:11.340Z,67.45
2019-01-20T10:18:37.253Z,67.41
2019-01-20T10:21:03.153Z,66.97
2019-01-20T10:23:29.037Z,67.17
2019-01-20T10:25:55.385Z,67.44
2019-01-20T10:28:21.363Z,67.29
2019-01-20T10:30:47.281Z,67.26
2019-01-20T10:33:13.151Z,67.25
2019-01-20T10:35:41.073Z,66.90
2019-01-20T10:38:08.659Z,66.99
2019-01-20T10:40:34.662Z,67.02
2019-01-20T10:43:00.542Z,67.16
2019-01-20T10:45:26.460Z,67.94
2019-01-20T10:47:52.344Z,68.35
2019-01-20T10:50:18.272Z,68.35
2019-01-20T10:52:44.583Z,68.22
2019-01-20T10:55:10.475Z,68.89
2019-01-20T10:57:36.372Z,68.28
2019-01-20T11:00:18.013Z,67.68
2019-01-20T11:02:43.939Z,67.77
2019-01-20T11:05:09.938Z,67.39
2019-01-20T11:07:35.855Z,67.55
2019-01-20T11:10:05.589Z,66.37
2019-01-20T11:12:31.543Z,66.37
2019-01-20T11:14:57.421Z,66.08
2019-01-20T11:17:23.372Z,65.30
2019-01-20T11:19:49.236Z,66.54
2019-01-20T11:22:15.167Z,65.59
2019-01-20T11:24:41.084Z,66.18
2019-01-20T11:27:07.032Z,65.19
2019-01-20T11:29:32.909Z,65.21
2019-01-20T11:31:58.828Z,67.67
2019-01-20T11:34:24.824Z,65.73
2019-01-20T11:36:50.697Z,65.15
2019-01-20T11:39:16.590Z,64.79
2019-01-20T11:41:42.517Z,63.62
2019-01-20T11:44:08.407Z,63.21
2019-01-20T11:46:34.330Z,62.86
2019-01-20T11:49:00.241Z,62.50
2019-01-20T11:51:26.173Z,62.71
2019-01-20T11:53:52.076Z,63.20
2019-01-20T11:56:18.013Z,62.15
2019-01-20T11:58:43.890Z,62.42
2019-01-20T12:01:09.823Z,61.35
2019-01-20T12:03:35.811Z,61.45
2019-01-20T12:06:01.745Z,62.30
2019-01-20T12:08:30.749Z,61.39
2019-01-20T12:10:55.455Z,61.40
2019-01-20T12:13:23.327Z,61.60
2019-01-20T12:15:49.313Z,62.24
2019-01-20T12:18:15.197Z,61.38
2019-01-20T12:20:41.127Z,60.93
2019-01-20T12:23:07.022Z,61.43
2019-01-20T12:25:32.933Z,60.20
2019-01-20T12:27:58.844Z,60.37
2019-01-20T12:30:33.967Z,60.60
2019-01-20T12:32:59.856Z,60.80
2019-01-20T12:35:25.780Z,60.38
2019-01-20T12:37:51.821Z,59.95
2019-01-20T12:40:21.101Z,59.20
2019-01-20T12:42:47.049Z,59.63
2019-01-20T12:45:14.982Z,59.61
2019-01-20T12:47:41.086Z,59.02
2019-01-20T12:50:10.664Z,59.89
2019-01-20T12:52:36.569Z,59.88
2019-01-20T12:55:03.949Z,58.51
2019-01-20T12:57:29.871Z,60.29
2019-01-20T12:59:55.786Z,58.11
2019-01-20T13:02:21.723Z,58.91
2019-01-20T13:04:47.829Z,60.32
2019-01-20T13:07:13.717Z,59.96
2019-01-20T13:09:39.657Z,58.14
2019-01-20T13:12:05.601Z,61.01
2019-01-20T13:14:31.555Z,61.01
2019-01-20T13:16:57.446Z,60.97
2019-01-20T13:19:23.449Z,60.83
2019-01-20T13:21:49.327Z,61.07
2019-01-20T13:24:15.252Z,61.82
2019-01-20T13:26:41.179Z,62.22
2019-01-20T13:29:07.131Z,60.76
2019-01-20T13:31:33.059Z,60.83
2019-01-20T13:33:58.967Z,60.14
2019-01-20T13:36:24.850Z,61.17
2019-01-20T13:38:53.287Z,61.57
2019-01-20T13:41:21.331Z,61.09
2019-01-20T13:43:47.340Z,60.97
2019-01-20T13:46:13.234Z,61.90
2019-01-20T13:48:39.145Z,61.54
2019-01-20T13:51:05.020Z,61.03
2019-01-20T13:53:30.900Z,61.03
2019-01-20T13:56:01.220Z,61.70
2019-01-20T13:58:24.622Z,61.78
2019-01-20T14:00:50.623Z,61.43
2019-01-20T14:03:16.491Z,61.52
2019-01-20T14:05:42.435Z,61.24
2019-01-20T14:08:08.340Z,61.79
2019-01-20T14:10:34.248Z,61.10
2019-01-20T14:13:00.160Z,60.99
2019-01-20T14:15:26.084Z,61.26
2019-01-20T14:17:51.960Z,61.28
2019-01-20T14:20:25.108Z,61.49
2019-01-20T14:22:51.114Z,61.36
2019-01-20T14:25:26.342Z,61.54
2019-01-20T14:27:52.304Z,61.95
2019-01-20T14:30:23.918Z,62.66
2019-01-20T14:32:49.851Z,62.46
2019-01-20T14:35:16.696Z,62.47
2019-01-20T14:37:42.597Z,62.99
2019-01-20T14:40:12.301Z,62.71
2019-01-20T14:42:38.227Z,63.13
2019-01-20T14:45:06.941Z,62.96
2019-01-20T14:47:32.857Z,62.96
2019-01-20T14:49:58.844Z,62.91
2019-01-20T14:52:24.758Z,62.68
2019-01-20T14:54:50.671Z,62.98
2019-01-20T14:57:16.666Z,62.32
2019-01-20T14:59:42.645Z,62.61
2019-01-20T15:02:08.539Z,63.21
2019-01-20T15:04:34.521Z,63.22
2019-01-20T15:07:00.452Z,62.86
2019-01-20T15:09:26.616Z,62.73
2019-01-20T15:11:52.628Z,63.28
2019-01-20T15:14:18.589Z,64.04
2019-01-20T15:16:44.491Z,64.55
2019-01-20T15:19:10.493Z,64.24
2019-01-20T15:21:36.421Z,64.05
2019-01-20T15:24:02.443Z,63.31
2019-01-20T15:26:28.545Z,62.74
2019-01-20T15:28:54.455Z,62.74
2019-01-20T15:31:20.354Z,62.78
2019-01-20T15:33:46.237Z,62.78
2019-01-20T15:36:12.151Z,63.23
2019-01-20T15:38:38.032Z,63.72
2019-01-20T15:41:03.996Z,65.38
2019-01-20T15:43:30.270Z,64.23
2019-01-20T15:45:56.250Z,64.22
2019-01-20T15:48:22.171Z,64.02
2019-01-20T15:50:48.040Z,65.22
2019-01-20T15:53:13.968Z,65.69
2019-01-20T15:55:39.870Z,65.16
2019-01-20T15:58:05.805Z,65.04
2019-01-20T16:00:31.743Z,64.98
2019-01-20T16:02:57.659Z,65.61
2019-01-20T16:05:24.366Z,65.87
2019-01-20T16:07:50.304Z,65.58
2019-01-20T16:10:16.347Z,66.03
2019-01-20T16:12:42.475Z,65.50
2019-01-20T16:15:11.499Z,64.65
2019-01-20T16:17:37.419Z,64.57
2019-01-20T16:20:07.147Z,64.38
2019-01-20T16:22:33.072Z,64.20
2019-01-20T16:24:58.987Z,63.82
2019-01-20T16:27:25.043Z,63.93
2019-01-20T16:29:51.069Z,64.28
2019-01-20T16:32:16.965Z,64.11
2019-01-20T16:34:42.945Z,64.16
2019-01-20T16:37:08.841Z,64.33
2019-01-20T16:39:34.782Z,64.13
2019-01-20T16:42:00.703Z,63.75
2019-01-20T16:44:26.746Z,63.92
2019-01-20T16:46:52.654Z,64.10
2019-01-20T16:49:18.596Z,64.09
2019-01-20T16:51:44.500Z,64.11
2019-01-20T16:54:10.417Z,64.05
2019-01-20T16:56:36.375Z,64.27
2019-01-20T16:59:02.252Z,63.83
2019-01-20T17:01:28.195Z,64.41
2019-01-20T17:03:54.078Z,64.29
2019-01-20T17:06:20.325Z,64.41
2019-01-20T17:08:46.196Z,64.44
2019-01-20T17:11:12.074Z,64.22
2019-01-20T17:13:38.092Z,64.77
2019-01-20T17:16:03.985Z,64.64
2019-01-20T17:18:29.925Z,64.49
2019-01-20T17:20:55.805Z,64.40
2019-01-20T17:23:21.752Z,64.31
2019-01-20T17:25:47.626Z,65.15
2019-01-20T17:28:13.588Z,65.47
2019-01-20T17:30:39.588Z,65.47
2019-01-20T17:33:07.605Z,65.79
2019-01-20T17:35:33.657Z,65.22
2019-01-20T17:37:59.607Z,65.44
2019-01-20T17:40:28.323Z,65.04
2019-01-20T17:42:54.217Z,64.91
2019-01-20T17:45:26.230Z,64.92
2019-01-20T17:47:52.153Z,65.12
2019-01-20T17:50:34.009Z,64.85
2019-01-20T17:52:59.895Z,64.78
2019-01-20T17:55:25.780Z,64.81
2019-01-20T17:57:51.728Z,64.72
2019-01-20T18:00:25.618Z,64.83
2019-01-20T18:02:51.546Z,65.02
2019-01-20T18:05:20.449Z,64.74
2019-01-20T18:07:46.330Z,64.77
2019-01-20T18:10:13.382Z,64.72
2019-01-20T18:12:39.264Z,64.63
2019-01-20T18:15:08.496Z,64.76
2019-01-20T18:17:34.418Z,64.76
2019-01-20T18:20:00.314Z,65.11
2019-01-20T18:22:26.321Z,65.27
2019-01-20T18:24:52.222Z,65.32
2019-01-20T18:27:18.241Z,65.12
2019-01-20T18:29:44.110Z,64.91
2019-01-20T18:32:10.045Z,64.86
2019-01-20T18:34:35.924Z,65.09
2019-01-20T18:37:01.890Z,64.83
2019-01-20T18:39:27.794Z,65.06
2019-01-20T18:41:53.715Z,65.44
2019-01-20T18:44:21.568Z,65.63
2019-01-20T18:46:47.471Z,65.52
2019-01-20T18:49:13.496Z,65.34
2019-01-20T18:51:39.448Z,65.60
2019-01-20T18:54:05.409Z,65.23
2019-01-20T18:56:31.321Z,65.40
2019-01-20T18:58:57.321Z,64.93
2019-01-20T19:01:23.187Z,64.87
2019-01-20T19:03:49.121Z,64.38
2019-01-20T19:06:14.992Z,64.21
2019-01-20T19:08:40.923Z,64.44
2019-01-20T19:11:06.846Z,64.62
2019-01-20T19:13:32.766Z,64.64
2019-01-20T19:15:58.795Z,64.70
2019-01-20T19:18:24.679Z,64.24
2019-01-20T19:20:50.601Z,64.63
2019-01-20T19:23:16.490Z,64.15
2019-01-20T19:25:42.392Z,64.43
2019-01-20T19:28:08.302Z,64.31
2019-01-20T19:30:34.359Z,64.57
2019-01-20T19:33:00.327Z,64.80
2019-01-20T19:35:26.291Z,64.79
2019-01-20T19:37:52.280Z,64.31
2019-01-20T19:40:18.222Z,64.28
2019-01-20T19:42:44.113Z,64.44
2019-01-20T19:45:15.253Z,64.07
2019-01-20T19:47:41.198Z,64.08
2019-01-20T19:50:09.814Z,64.06
2019-01-20T19:52:35.837Z,64.57
2019-01-20T19:55:01.741Z,65.80
2019-01-20T19:57:27.684Z,65.15
2019-01-20T19:59:53.577Z,65.02
2019-01-20T20:02:19.482Z,64.60
2019-01-20T20:04:45.495Z,64.40
2019-01-20T20:07:11.438Z,64.57
2019-01-20T20:09:37.330Z,64.44
2019-01-20T20:12:03.215Z,64.46
2019-01-20T20:14:29.151Z,64.54
2019-01-20T20:16:55.057Z,64.40
2019-01-20T20:19:20.990Z,64.12
2019-01-20T20:21:46.913Z,64.28
2019-01-20T20:24:12.857Z,64.46
2019-01-20T20:26:38.769Z,64.42
2019-01-20T20:29:04.731Z,64.42
2019-01-20T20:31:30.818Z,64.26
2019-01-20T20:33:56.731Z,64.39
2019-01-20T20:36:34.874Z,64.46
2019-01-20T20:39:01.520Z,64.43
2019-01-20T20:41:27.964Z,64.20
2019-01-20T20:43:54.325Z,64.30
2019-01-20T20:46:20.829Z,64.18
2019-01-20T20:48:47.260Z,64.28
2019-01-20T20:51:13.811Z,64.12
2019-01-20T20:53:40.239Z,63.91
2019-01-20T20:56:07.184Z,64.03
2019-01-20T20:58:33.735Z,64.39
2019-01-20T21:01:00.160Z,64.21
2019-01-20T21:03:26.538Z,63.51
2019-01-20T21:05:53.050Z,63.57
2019-01-20T21:08:19.490Z,63.93
2019-01-20T21:10:45.943Z,64.18
2019-01-20T21:13:12.380Z,64.42
2019-01-20T21:15:40.481Z,64.15
2019-01-20T21:18:06.753Z,64.28
2019-01-20T21:20:32.871Z,64.01
2019-01-20T21:22:59.055Z,64.22
2019-01-20T21:25:25.120Z,63.76
2019-01-20T21:27:52.924Z,64.00
2019-01-20T21:30:26.694Z,64.06
2019-01-20T21:32:54.208Z,64.01
2019-01-20T21:35:20.655Z,63.99
2019-01-20T21:37:48.866Z,63.47
2019-01-20T21:40:16.879Z,63.55
2019-01-20T21:42:42.894Z,63.96
2019-01-20T21:45:10.655Z,63.70
2019-01-20T21:47:36.973Z,63.77
2019-01-20T21:50:09.261Z,64.00
2019-01-20T21:52:35.317Z,64.46
2019-01-20T21:55:01.679Z,63.73
2019-01-20T21:57:27.566Z,63.69
2019-01-20T21:59:53.642Z,64.03
2019-01-20T22:02:19.646Z,64.16
2019-01-20T22:04:50.106Z,63.96
2019-01-20T22:07:19.259Z,64.08
2019-01-20T22:09:45.653Z,64.18
2019-01-20T22:12:12.321Z,63.01
2019-01-20T22:14:38.319Z,62.97
2019-01-20T22:17:04.367Z,63.51
2019-01-20T22:19:30.429Z,63.81
2019-01-20T22:21:56.845Z,63.97
2019-01-20T22:24:24.595Z,63.73
2019-01-20T22:26:50.795Z,63.59
2019-01-20T22:29:16.859Z,63.24
2019-01-20T22:31:43.303Z,63.60
2019-01-20T22:34:09.961Z,63.72
2019-01-20T22:36:36.063Z,63.99
2019-01-20T22:39:02.870Z,64.63
2019-01-20T22:41:29.134Z,64.60
2019-01-20T22:43:55.393Z,64.30
2019-01-20T22:46:21.922Z,64.03
2019-01-20T22:48:48.269Z,64.08
2019-01-20T22:51:14.314Z,64.00
2019-01-20T22:53:40.808Z,64.09
2019-01-20T22:56:07.274Z,66.34
2019-01-20T22:58:33.708Z,66.01
2019-01-20T23:01:02.186Z,65.49
2019-01-20T23:03:28.639Z,64.91
2019-01-20T23:05:55.076Z,64.71
2019-01-20T23:08:21.653Z,64.59
2019-01-20T23:10:47.764Z,64.29
2019-01-20T23:13:14.500Z,64.20
2019-01-20T23:15:41.243Z,64.20
2019-01-20T23:18:07.682Z,64.27
2019-01-20T23:20:35.964Z,64.53
2019-01-20T23:23:02.505Z,63.86
2019-01-20T23:25:28.943Z,63.94
2019-01-20T23:27:57.734Z,64.00
2019-01-20T23:30:24.113Z,63.99
2019-01-20T23:32:50.007Z,63.74
2019-01-20T23:35:15.889Z,63.79
2019-01-20T23:37:41.872Z,63.75
2019-01-20T23:40:14.186Z,63.75
2019-01-20T23:42:40.067Z,63.79
2019-01-20T23:45:10.684Z,63.07
2019-01-20T23:47:36.588Z,63.39
2019-01-20T23:50:05.364Z,63.46
2019-01-20T23:52:31.265Z,63.42
2019-01-20T23:54:57.186Z,63.33
2019-01-20T23:57:23.059Z,63.40
2019-01-20T23:59:48.984Z,63.36
